createdAt,value
2018-07-02T00:00:29.804Z,9.57
2018-07-02T00:03:05.237Z,9.03
2018-07-02T00:05:46.123Z,9.23
2018-07-02T00:08:21.575Z,9.73
2018-07-02T00:10:57.112Z,9.27
2018-07-02T00:13:32.373Z,9.20
2018-07-02T00:16:08.073Z,8.70
2018-07-02T00:18:43.352Z,9.23
2018-07-02T00:21:18.627Z,8.97
2018-07-02T00:23:53.772Z,8.83
2018-07-02T00:26:29.009Z,8.87
2018-07-02T00:29:04.276Z,9.30
2018-07-02T00:31:39.577Z,8.93
2018-07-02T00:34:14.733Z,8.90
2018-07-02T00:36:50.195Z,9.43
2018-07-02T00:39:25.617Z,8.70
2018-07-02T00:42:00.771Z,9.70
2018-07-02T00:44:36.190Z,9.10
2018-07-02T00:47:11.619Z,8.83
2018-07-02T00:49:47.078Z,9.30
2018-07-02T00:52:22.267Z,9.27
2018-07-02T00:54:57.637Z,8.97
2018-07-02T00:57:32.828Z,8.60
2018-07-02T01:00:11.010Z,8.60
2018-07-02T01:02:46.464Z,8.30
2018-07-02T01:05:21.712Z,8.47
2018-07-02T01:07:57.171Z,8.17
2018-07-02T01:10:32.532Z,8.60
2018-07-02T01:13:07.952Z,8.50
2018-07-02T01:15:43.223Z,8.30
2018-07-02T01:18:18.528Z,7.83
2018-07-02T01:20:53.928Z,8.17
2018-07-02T01:23:29.108Z,8.33
2018-07-02T01:26:04.417Z,7.77
2018-07-02T01:28:39.948Z,7.80
2018-07-02T01:31:15.301Z,7.50
2018-07-02T01:33:50.676Z,7.30
2018-07-02T01:36:26.028Z,7.80
2018-07-02T01:39:01.398Z,7.10
2018-07-02T01:41:36.651Z,7.10
2018-07-02T01:44:11.933Z,7.77
2018-07-02T01:46:47.299Z,6.97
2018-07-02T01:49:22.783Z,7.63
2018-07-02T01:51:58.013Z,6.63
2018-07-02T01:54:33.789Z,6.73
2018-07-02T01:57:09.336Z,6.60
2018-07-02T01:59:44.717Z,7.40
2018-07-02T02:02:19.860Z,6.53
2018-07-02T02:04:55.199Z,7.10
2018-07-02T02:07:30.661Z,6.90
2018-07-02T02:10:06.296Z,6.40
2018-07-02T02:12:41.531Z,6.57
2018-07-02T02:15:17.027Z,6.40
2018-07-02T02:17:52.159Z,6.80
2018-07-02T02:20:27.410Z,7.10
2018-07-02T02:23:02.709Z,6.17
2018-07-02T02:25:38.125Z,6.00
2018-07-02T02:28:13.589Z,6.10
2018-07-02T02:30:49.243Z,5.90
2018-07-02T02:33:24.478Z,6.07
2018-07-02T02:35:59.655Z,6.00
2018-07-02T02:38:35.059Z,5.90
2018-07-02T02:41:10.603Z,5.90
2018-07-02T02:43:45.703Z,6.10
2018-07-02T02:46:21.091Z,6.30
2018-07-02T02:48:56.524Z,5.60
2018-07-02T02:51:31.715Z,5.73
2018-07-02T02:54:06.953Z,5.50
2018-07-02T02:56:42.451Z,5.93
2018-07-02T02:59:17.714Z,5.63
2018-07-02T03:01:53.148Z,5.90
2018-07-02T03:04:28.309Z,5.50
2018-07-02T03:07:04.224Z,5.47
2018-07-02T03:09:39.580Z,5.40
2018-07-02T03:12:14.932Z,5.37
2018-07-02T03:14:50.273Z,5.70
2018-07-02T03:17:25.596Z,4.87
2018-07-02T03:20:00.925Z,4.83
2018-07-02T03:22:36.396Z,4.97
2018-07-02T03:25:11.659Z,5.30
2018-07-02T03:27:46.980Z,4.87
2018-07-02T03:30:22.339Z,5.20
2018-07-02T03:32:57.760Z,4.87
2018-07-02T03:35:32.869Z,4.97
2018-07-02T03:38:08.157Z,4.83
2018-07-02T03:40:43.527Z,4.80
2018-07-02T03:43:18.829Z,4.70
2018-07-02T03:45:53.976Z,4.60
2018-07-02T03:48:29.591Z,5.10
2018-07-02T03:51:04.896Z,4.90
2018-07-02T03:53:40.049Z,5.13
2018-07-02T03:56:15.609Z,5.10
2018-07-02T03:58:50.873Z,5.13
2018-07-02T04:01:26.192Z,4.20
2018-07-02T04:04:01.564Z,4.37
2018-07-02T04:06:37.067Z,4.50
2018-07-02T04:09:13.734Z,4.47
2018-07-02T04:11:49.003Z,4.77
2018-07-02T04:14:24.307Z,4.77
2018-07-02T04:16:59.452Z,4.83
2018-07-02T04:19:34.851Z,4.83
2018-07-02T04:22:10.070Z,4.57
2018-07-02T04:24:45.400Z,4.67
2018-07-02T04:27:20.580Z,4.20
2018-07-02T04:29:56.062Z,4.40
2018-07-02T04:32:31.464Z,4.60
2018-07-02T04:35:06.996Z,4.40
2018-07-02T04:37:42.343Z,4.37
2018-07-02T04:40:17.824Z,4.20
2018-07-02T04:42:53.304Z,4.33
2018-07-02T04:45:28.513Z,4.80
2018-07-02T04:48:03.833Z,5.10
2018-07-02T04:50:39.307Z,4.90
2018-07-02T04:53:14.703Z,4.50
2018-07-02T04:55:50.169Z,4.50
2018-07-02T04:58:25.296Z,4.33
2018-07-02T05:01:00.945Z,4.50
2018-07-02T05:03:36.180Z,4.30
2018-07-02T05:06:12.005Z,4.40
2018-07-02T05:08:47.353Z,4.63
2018-07-02T05:11:22.620Z,4.67
2018-07-02T05:13:57.927Z,4.70
2018-07-02T05:16:33.406Z,4.20
2018-07-02T05:19:08.507Z,4.40
2018-07-02T05:21:43.727Z,4.40
2018-07-02T05:24:19.122Z,4.27
2018-07-02T05:26:55.248Z,3.70
2018-07-02T05:29:30.620Z,4.10
2018-07-02T05:32:05.848Z,4.30
2018-07-02T05:34:41.174Z,3.63
2018-07-02T05:37:16.815Z,4.53
2018-07-02T05:39:52.054Z,3.93
2018-07-02T05:42:27.706Z,4.13
2018-07-02T05:45:02.982Z,4.63
2018-07-02T05:47:38.060Z,6.37
2018-07-02T05:50:13.568Z,14.50
2018-07-02T05:52:48.671Z,14.80
2018-07-02T05:55:24.358Z,13.20
2018-07-02T05:57:59.707Z,8.47
2018-07-02T06:00:35.110Z,6.13
2018-07-02T06:03:10.305Z,5.10
2018-07-02T06:05:45.647Z,4.53
2018-07-02T06:08:21.092Z,3.93
2018-07-02T06:10:56.800Z,4.33
2018-07-02T06:13:31.882Z,3.90
2018-07-02T06:16:07.547Z,3.73
2018-07-02T06:18:43.072Z,3.43
2018-07-02T06:21:18.340Z,3.77
2018-07-02T06:23:53.652Z,3.63
2018-07-02T06:26:29.139Z,3.20
2018-07-02T06:29:04.296Z,3.37
2018-07-02T06:31:39.896Z,3.60
2018-07-02T06:34:15.132Z,3.53
2018-07-02T06:36:50.611Z,3.03
2018-07-02T06:39:26.000Z,3.40
2018-07-02T06:42:01.871Z,3.00
2018-07-02T06:44:36.888Z,2.63
2018-07-02T06:47:12.245Z,2.47
2018-07-02T06:49:47.500Z,2.87
2018-07-02T06:52:22.643Z,3.00
2018-07-02T06:54:58.054Z,2.97
2018-07-02T06:57:33.380Z,2.80
2018-07-02T07:00:08.624Z,2.60
2018-07-02T07:02:44.148Z,2.57
2018-07-02T07:05:19.320Z,2.83
2018-07-02T07:07:54.697Z,2.80
2018-07-02T07:10:30.090Z,2.90
2018-07-02T07:13:05.348Z,2.57
2018-07-02T07:15:40.633Z,2.50
2018-07-02T07:18:15.793Z,2.60
2018-07-02T07:20:51.298Z,2.60
2018-07-02T07:23:26.599Z,2.50
2018-07-02T07:26:01.799Z,2.70
2018-07-02T07:28:37.310Z,2.23
2018-07-02T07:31:12.573Z,2.30
2018-07-02T07:33:47.881Z,2.97
2018-07-02T07:36:23.287Z,2.50
2018-07-02T07:38:58.581Z,2.47
2018-07-02T07:41:33.920Z,2.33
2018-07-02T07:44:09.340Z,2.63
2018-07-02T07:46:44.624Z,2.43
2018-07-02T07:49:20.408Z,2.17
2018-07-02T07:51:56.260Z,2.57
2018-07-02T07:54:31.424Z,2.10
2018-07-02T07:57:06.535Z,2.50
2018-07-02T07:59:42.044Z,2.60
2018-07-02T08:02:17.419Z,2.20
2018-07-02T08:04:53.007Z,2.30
2018-07-02T08:07:28.292Z,2.23
2018-07-02T08:10:03.496Z,2.20
2018-07-02T08:12:38.648Z,2.37
2018-07-02T08:15:14.020Z,2.10
2018-07-02T08:17:49.448Z,2.30
2018-07-02T08:20:25.237Z,2.40
2018-07-02T08:23:00.656Z,2.17
2018-07-02T08:25:36.187Z,2.70
2018-07-02T08:28:11.583Z,2.10
2018-07-02T08:30:47.010Z,2.10
2018-07-02T08:33:22.417Z,2.63
2018-07-02T08:35:57.881Z,2.50
2018-07-02T08:38:33.320Z,2.60
2018-07-02T08:41:08.953Z,2.23
2018-07-02T08:43:44.227Z,2.70
2018-07-02T08:46:19.759Z,2.60
2018-07-02T08:48:55.075Z,2.60
2018-07-02T08:51:30.860Z,2.57
2018-07-02T08:54:05.993Z,2.50
2018-07-02T08:56:41.889Z,2.80
2018-07-02T08:59:17.151Z,2.60
2018-07-02T09:01:52.626Z,3.30
2018-07-02T09:04:28.032Z,2.83
2018-07-02T09:07:03.533Z,2.50
2018-07-02T09:09:38.979Z,3.00
2018-07-02T09:12:14.400Z,2.57
2018-07-02T09:14:49.811Z,2.47
2018-07-02T09:17:25.269Z,2.37
2018-07-02T09:20:00.692Z,2.67
2018-07-02T09:22:35.876Z,2.77
2018-07-02T09:25:11.372Z,2.73
2018-07-02T09:27:46.931Z,2.33
2018-07-02T09:30:22.571Z,2.30
2018-07-02T09:32:57.997Z,2.30
2018-07-02T09:35:33.452Z,2.40
2018-07-02T09:38:09.008Z,2.40
2018-07-02T09:40:44.531Z,2.60
2018-07-02T09:43:19.891Z,2.80
2018-07-02T09:45:55.183Z,2.97
2018-07-02T09:48:30.576Z,2.60
2018-07-02T09:51:05.740Z,2.70
2018-07-02T09:53:40.872Z,2.53
2018-07-02T09:56:16.648Z,2.20
2018-07-02T09:58:52.029Z,2.47
2018-07-02T10:01:27.509Z,2.57
2018-07-02T10:04:02.900Z,2.03
2018-07-02T10:06:38.194Z,2.40
2018-07-02T10:09:13.645Z,2.43
2018-07-02T10:11:48.907Z,2.07
2018-07-02T10:14:24.028Z,2.10
2018-07-02T10:16:59.533Z,2.10
2018-07-02T10:19:34.948Z,2.07
2018-07-02T10:22:10.123Z,1.97
2018-07-02T10:24:45.537Z,1.97
2018-07-02T10:27:20.664Z,2.20
2018-07-02T10:29:55.787Z,2.10
2018-07-02T10:32:30.961Z,2.00
2018-07-02T10:35:06.076Z,2.40
2018-07-02T10:37:41.400Z,2.20
2018-07-02T10:40:16.536Z,2.53
2018-07-02T10:42:51.803Z,2.27
2018-07-02T10:45:27.228Z,2.10
2018-07-02T10:48:02.373Z,2.20
2018-07-02T10:50:37.875Z,2.03
2018-07-02T10:53:13.280Z,2.30
2018-07-02T10:55:48.444Z,1.93
2018-07-02T10:58:23.849Z,2.00
2018-07-02T11:00:59.305Z,2.30
2018-07-02T11:03:34.568Z,2.20
2018-07-02T11:06:09.844Z,2.30
2018-07-02T11:08:45.209Z,2.17
2018-07-02T11:11:20.529Z,2.10
2018-07-02T11:13:55.944Z,2.07
2018-07-02T11:16:31.307Z,2.07
2018-07-02T11:19:06.799Z,2.20
2018-07-02T11:21:42.339Z,2.20
2018-07-02T11:24:17.676Z,2.00
2018-07-02T11:26:53.071Z,1.87
2018-07-02T11:29:28.577Z,2.10
2018-07-02T11:32:03.963Z,2.20
2018-07-02T11:34:39.146Z,2.33
2018-07-02T11:37:14.536Z,2.20
2018-07-02T11:39:49.742Z,2.40
2018-07-02T11:42:25.154Z,2.20
2018-07-02T11:45:00.664Z,2.10
2018-07-02T11:47:36.475Z,2.07
2018-07-02T11:50:11.852Z,2.30
2018-07-02T11:52:46.995Z,1.90
2018-07-02T11:55:22.376Z,2.20
2018-07-02T11:57:57.581Z,2.20
2018-07-02T12:00:33.064Z,1.80
2018-07-02T12:03:08.396Z,2.00
2018-07-02T12:05:43.699Z,1.90
2018-07-02T12:08:18.928Z,2.10
2018-07-02T12:10:54.111Z,1.90
2018-07-02T12:13:29.505Z,2.00
2018-07-02T12:16:04.994Z,2.10
2018-07-02T12:18:40.110Z,2.00
2018-07-02T12:21:15.278Z,2.00
2018-07-02T12:23:50.668Z,2.00
2018-07-02T12:26:26.164Z,2.53
2018-07-02T12:29:01.870Z,1.80
2018-07-02T12:31:37.377Z,2.03
2018-07-02T12:34:12.600Z,2.00
2018-07-02T12:36:47.960Z,1.60
2018-07-02T12:39:23.083Z,2.07
2018-07-02T12:41:58.503Z,2.13
2018-07-02T12:44:33.662Z,1.80
2018-07-02T12:47:08.964Z,1.70
2018-07-02T12:49:44.233Z,1.93
2018-07-02T12:52:19.832Z,2.00
2018-07-02T12:54:55.144Z,1.90
2018-07-02T12:57:30.587Z,1.80
2018-07-02T13:00:06.038Z,1.90
2018-07-02T13:02:41.387Z,2.07
2018-07-02T13:05:17.143Z,2.10
2018-07-02T13:07:52.435Z,2.00
2018-07-02T13:10:27.821Z,2.03
2018-07-02T13:13:03.499Z,1.90
2018-07-02T13:15:38.740Z,1.90
2018-07-02T13:18:14.593Z,1.83
2018-07-02T13:20:49.809Z,2.00
2018-07-02T13:23:25.404Z,1.90
2018-07-02T13:26:00.857Z,1.90
2018-07-02T13:28:36.164Z,2.00
2018-07-02T13:31:11.626Z,1.60
2018-07-02T13:33:47.138Z,1.90
2018-07-02T13:36:22.816Z,1.90
2018-07-02T13:38:58.232Z,2.13
2018-07-02T13:41:33.403Z,1.97
2018-07-02T13:44:08.788Z,2.23
2018-07-02T13:46:44.536Z,2.07
2018-07-02T13:49:19.753Z,2.10
2018-07-02T13:51:55.280Z,1.93
2018-07-02T13:54:30.447Z,2.50
2018-07-02T13:57:05.694Z,2.07
2018-07-02T13:59:40.852Z,2.10
2018-07-02T14:02:15.966Z,2.10
2018-07-02T14:04:51.188Z,2.30
2018-07-02T14:07:26.569Z,2.33
2018-07-02T14:10:02.052Z,2.20
2018-07-02T14:12:37.421Z,2.30
2018-07-02T14:15:12.896Z,2.30
2018-07-02T14:17:48.014Z,2.20
2018-07-02T14:20:23.472Z,2.20
2018-07-02T14:22:58.601Z,2.13
2018-07-02T14:25:33.744Z,2.40
2018-07-02T14:28:09.084Z,2.10
2018-07-02T14:30:44.933Z,2.50
2018-07-02T14:33:20.344Z,2.10
2018-07-02T14:35:55.516Z,2.03
2018-07-02T14:38:30.940Z,2.10
2018-07-02T14:41:06.401Z,2.37
2018-07-02T14:43:41.616Z,2.40
2018-07-02T14:46:17.568Z,2.30
2018-07-02T14:48:52.696Z,2.10
2018-07-02T14:51:27.808Z,2.10
2018-07-02T14:54:02.960Z,2.30
2018-07-02T14:56:38.476Z,2.23
2018-07-02T14:59:13.725Z,2.20
2018-07-02T15:01:49.036Z,2.13
2018-07-02T15:04:24.237Z,2.40
2018-07-02T15:06:59.353Z,2.43
2018-07-02T15:09:34.812Z,2.30
2018-07-02T15:12:10.284Z,2.20
2018-07-02T15:14:45.481Z,2.20
2018-07-02T15:17:20.617Z,2.60
2018-07-02T15:19:55.860Z,2.47
2018-07-02T15:22:31.516Z,2.50
2018-07-02T15:25:07.066Z,2.40
2018-07-02T15:27:42.296Z,2.30
2018-07-02T15:30:17.944Z,2.40
2018-07-02T15:32:53.900Z,2.70
2018-07-02T15:35:29.481Z,2.10
2018-07-02T15:38:04.996Z,2.23
2018-07-02T15:40:40.624Z,2.30
2018-07-02T15:43:16.093Z,2.57
2018-07-02T15:45:51.549Z,2.50
2018-07-02T15:48:26.684Z,2.37
2018-07-02T15:51:02.061Z,2.20
2018-07-02T15:53:37.564Z,2.33
2018-07-02T15:56:12.979Z,2.40
2018-07-02T15:58:48.213Z,2.23
2018-07-02T16:01:23.860Z,2.33
2018-07-02T16:03:59.336Z,2.50
2018-07-02T16:06:34.556Z,2.50
2018-07-02T16:09:11.143Z,2.97
2018-07-02T16:11:46.247Z,2.90
2018-07-02T16:14:21.636Z,3.37
2018-07-02T16:16:56.775Z,3.20
2018-07-02T16:19:32.088Z,3.10
2018-07-02T16:22:07.192Z,3.10
2018-07-02T16:24:42.663Z,3.40
2018-07-02T16:27:18.023Z,2.90
2018-07-02T16:29:53.447Z,3.30
2018-07-02T16:32:28.541Z,3.50
2018-07-02T16:35:04.063Z,3.63
2018-07-02T16:37:39.156Z,4.40
2018-07-02T16:40:14.760Z,3.63
2018-07-02T16:42:49.975Z,4.13
2018-07-02T16:45:25.506Z,4.67
2018-07-02T16:48:00.795Z,4.27
2018-07-02T16:50:36.168Z,3.70
2018-07-02T16:53:11.866Z,4.33
2018-07-02T16:55:47.937Z,4.67
2018-07-02T16:58:23.031Z,3.90
2018-07-02T17:00:58.320Z,3.83
2018-07-02T17:03:33.907Z,3.80
2018-07-02T17:06:09.250Z,3.63
2018-07-02T17:08:44.530Z,3.70
2018-07-02T17:11:19.900Z,4.00
2018-07-02T17:13:55.276Z,3.50
2018-07-02T17:16:30.505Z,3.20
2018-07-02T17:19:05.930Z,3.50
2018-07-02T17:21:41.416Z,2.97
2018-07-02T17:24:16.609Z,3.23
2018-07-02T17:26:52.163Z,2.97
2018-07-02T17:29:27.393Z,3.03
2018-07-02T17:32:02.808Z,2.87
2018-07-02T17:34:38.123Z,2.73
2018-07-02T17:37:13.593Z,2.70
2018-07-02T17:39:49.013Z,4.33
2018-07-02T17:42:24.318Z,3.50
2018-07-02T17:44:59.731Z,3.00
2018-07-02T17:47:34.865Z,3.13
2018-07-02T17:50:10.013Z,2.83
2018-07-02T17:52:45.297Z,2.80
2018-07-02T17:55:20.613Z,3.10
2018-07-02T17:57:55.770Z,3.17
2018-07-02T18:00:31.522Z,3.07
2018-07-02T18:03:06.914Z,3.00
2018-07-02T18:05:43.949Z,3.40
2018-07-02T18:08:21.600Z,3.10
2018-07-02T18:10:59.248Z,2.60
2018-07-02T18:13:35.967Z,2.97
2018-07-02T18:16:12.603Z,3.00
2018-07-02T18:18:49.528Z,2.93
2018-07-02T18:21:25.544Z,3.27
2018-07-02T18:24:00.977Z,3.07
2018-07-02T18:26:36.957Z,3.10
2018-07-02T18:29:14.163Z,2.97
2018-07-02T18:31:52.256Z,3.40
2018-07-02T18:34:29.397Z,3.50
2018-07-02T18:37:06.610Z,3.50
2018-07-02T18:39:43.160Z,3.90
2018-07-02T18:42:19.548Z,4.17
2018-07-02T18:44:57.806Z,4.00
2018-07-02T18:47:34.043Z,4.30
2018-07-02T18:50:10.081Z,4.20
2018-07-02T18:52:48.431Z,4.83
2018-07-02T18:55:25.212Z,4.60
2018-07-02T18:58:01.575Z,4.60
2018-07-02T19:00:39.685Z,5.30
2018-07-02T19:03:18.834Z,5.10
2018-07-02T19:05:56.737Z,5.07
2018-07-02T19:08:34.036Z,4.90
2018-07-02T19:11:09.737Z,4.53
2018-07-02T19:13:45.531Z,4.43
2018-07-02T19:16:22.254Z,5.27
2018-07-02T19:19:01.489Z,4.47
2018-07-02T19:21:37.820Z,4.60
2018-07-02T19:24:17.454Z,4.93
2018-07-02T19:26:53.186Z,4.30
2018-07-02T19:29:30.408Z,4.47
2018-07-02T19:32:06.107Z,4.83
2018-07-02T19:34:43.057Z,4.67
2018-07-02T19:37:18.703Z,4.47
2018-07-02T19:39:54.231Z,4.73
2018-07-02T19:42:29.884Z,6.63
2018-07-02T19:45:06.757Z,7.00
2018-07-02T19:47:42.473Z,8.17
2018-07-02T19:50:17.703Z,10.87
2018-07-02T19:52:52.977Z,13.67
2018-07-02T19:55:28.914Z,14.00
2018-07-02T19:58:04.234Z,14.77
2018-07-02T20:00:39.620Z,13.50
2018-07-02T20:03:15.028Z,8.07
2018-07-02T20:05:50.372Z,6.53
2018-07-02T20:08:25.617Z,6.87
2018-07-02T20:11:01.405Z,6.70
2018-07-02T20:13:36.945Z,6.83
2018-07-02T20:16:12.384Z,6.97
2018-07-02T20:18:47.617Z,7.00
2018-07-02T20:21:23.021Z,7.60
2018-07-02T20:23:58.319Z,7.17
2018-07-02T20:26:33.896Z,6.40
2018-07-02T20:29:09.008Z,6.23
2018-07-02T20:31:44.375Z,6.00
2018-07-02T20:34:19.763Z,5.90
2018-07-02T20:36:55.204Z,5.13
2018-07-02T20:39:30.316Z,5.63
2018-07-02T20:42:05.608Z,5.83
2018-07-02T20:44:40.884Z,5.50
2018-07-02T20:47:16.269Z,5.77
2018-07-02T20:49:51.657Z,5.77
2018-07-02T20:52:27.432Z,5.50
2018-07-02T20:55:03.269Z,5.40
2018-07-02T20:57:38.398Z,5.37
2018-07-02T21:00:13.784Z,6.00
2018-07-02T21:02:49.321Z,5.43
2018-07-02T21:05:24.424Z,5.53
2018-07-02T21:08:00.081Z,4.53
2018-07-02T21:10:35.428Z,5.90
2018-07-02T21:13:10.908Z,5.07
2018-07-02T21:15:47.270Z,5.43
2018-07-02T21:18:23.083Z,4.50
2018-07-02T21:20:58.465Z,5.20
2018-07-02T21:23:33.798Z,5.70
2018-07-02T21:26:09.188Z,5.47
2018-07-02T21:28:44.499Z,5.30
2018-07-02T21:31:19.606Z,4.80
2018-07-02T21:33:54.745Z,4.90
2018-07-02T21:36:29.859Z,5.23
2018-07-02T21:39:07.656Z,5.60
2018-07-02T21:41:43.535Z,4.97
2018-07-02T21:44:18.815Z,5.00
2018-07-02T21:46:54.609Z,5.20
2018-07-02T21:49:30.848Z,5.30
2018-07-02T21:52:06.847Z,5.17
2018-07-02T21:54:42.454Z,4.60
2018-07-02T21:57:18.528Z,4.47
2018-07-02T21:59:54.081Z,4.67
2018-07-02T22:02:29.649Z,4.80
2018-07-02T22:05:06.016Z,4.53
2018-07-02T22:07:43.383Z,4.63
2018-07-02T22:10:19.354Z,4.97
